Time;durP1;ratioP1;P1;durP2;ratioP2;P2;SDS_P1;SDS_P2;PMS_P1;PMS_P2;Temp;Humidity;BMP_temperature;BMP_pressure;BME280_temperature;BME280_humidity;BME280_pressure;Samples;Min_cycle;Max_cycle;Signal;HPM_P1;HPM_P2
2023/01/31 00:01:23;;;;;;;27.90;6.78;;;5.70;99.90;;;;;;5003461;28;20030;-70
2023/01/31 00:03:58;;;;;;;22.33;5.43;;;5.70;99.90;;;;;;5001066;28;20387;-71
2023/01/31 00:06:35;;;;;;;29.00;6.32;;;5.70;99.90;;;;;;5005859;28;20022;-69
2023/01/31 00:09:03;;;;;;;32.08;6.50;;;5.60;99.90;;;;;;5005750;28;20040;-78
2023/01/31 00:11:29;;;;;;;31.65;6.15;;;5.60;99.90;;;;;;5008063;28;20022;-70
2023/01/31 00:13:56;;;;;;;29.38;7.20;;;5.70;99.90;;;;;;5005185;28;20037;-69
2023/01/31 00:16:22;;;;;;;24.52;6.70;;;5.70;99.90;;;;;;5007099;28;20029;-70
2023/01/31 00:18:48;;;;;;;31.90;6.68;;;5.60;99.90;;;;;;5007676;28;20022;-69
2023/01/31 00:21:19;;;;;;;30.70;6.90;;;5.50;99.90;;;;;;5008618;28;20419;-69
2023/01/31 00:23:46;;;;;;;25.05;6.38;;;5.50;99.90;;;;;;5009011;28;20072;-71
2023/01/31 00:26:18;;;;;;;30.27;6.63;;;5.50;99.90;;;;;;5005306;28;20103;-69
2023/01/31 00:28:46;;;;;;;36.67;7.22;;;5.60;99.90;;;;;;5007254;28;20041;-69
2023/01/31 00:31:12;;;;;;;35.50;6.43;;;5.60;99.90;;;;;;5006950;28;20021;-69
2023/01/31 00:33:40;;;;;;;29.23;7.65;;;5.70;99.90;;;;;;5023130;28;20490;-69
2023/01/31 00:36:09;;;;;;;28.65;6.80;;;5.60;99.90;;;;;;5007111;28;20475;-70
2023/01/31 00:38:35;;;;;;;33.40;6.72;;;5.50;99.90;;;;;;5007236;28;20038;-70
2023/01/31 00:41:02;;;;;;;27.95;6.97;;;5.50;99.90;;;;;;5009154;28;20105;-70
2023/01/31 00:43:28;;;;;;;31.52;7.57;;;5.60;99.90;;;;;;5007483;28;20128;-69
2023/01/31 00:45:54;;;;;;;32.45;6.85;;;5.50;99.90;;;;;;5008138;28;20101;-69
2023/01/31 00:48:20;;;;;;;32.50;6.80;;;5.60;99.90;;;;;;5007725;28;20038;-69
2023/01/31 00:50:45;;;;;;;28.02;7.47;;;5.60;99.90;;;;;;5006471;28;20105;-70
2023/01/31 00:53:11;;;;;;;30.23;7.13;;;5.60;99.90;;;;;;5007375;28;20053;-69
2023/01/31 00:55:37;;;;;;;26.25;6.32;;;5.60;99.90;;;;;;5006945;28;20415;-69
2023/01/31 00:58:03;;;;;;;30.25;6.53;;;5.50;99.90;;;;;;5007861;28;20482;-70
2023/01/31 01:00:29;;;;;;;33.55;7.00;;;5.50;99.90;;;;;;5008638;28;20129;-69
2023/01/31 01:02:54;;;;;;;31.40;7.40;;;5.60;99.90;;;;;;5004825;28;20072;-69
2023/01/31 01:05:20;;;;;;;30.38;6.95;;;5.60;99.90;;;;;;5005207;28;20026;-70
2023/01/31 01:07:46;;;;;;;35.05;7.63;;;5.60;99.90;;;;;;5006484;28;20022;-69
2023/01/31 01:10:11;;;;;;;31.65;8.23;;;5.50;99.90;;;;;;5002558;28;20030;-70
2023/01/31 01:12:37;;;;;;;35.58;6.90;;;5.50;99.90;;;;;;5004956;28;20502;-70
2023/01/31 01:15:03;;;;;;;32.75;7.30;;;5.50;99.90;;;;;;5010262;28;20083;-70
2023/01/31 01:17:29;;;;;;;31.17;7.97;;;5.40;99.90;;;;;;5006405;28;20038;-70
2023/01/31 01:19:55;;;;;;;29.55;7.75;;;5.40;99.90;;;;;;5007650;28;20179;-70
2023/01/31 01:22:20;;;;;;;35.88;7.80;;;5.50;99.90;;;;;;5007386;28;20061;-72
2023/01/31 01:24:46;;;;;;;44.28;7.88;;;5.50;99.90;;;;;;5007748;28;20026;-76
2023/01/31 01:27:12;;;;;;;28.02;7.07;;;5.50;99.90;;;;;;5007089;28;20025;-72
2023/01/31 01:29:38;;;;;;;29.30;8.38;;;5.50;99.90;;;;;;5005830;28;20022;-72
2023/01/31 01:32:05;;;;;;;32.25;7.47;;;5.40;99.90;;;;;;5007294;28;20059;-70
2023/01/31 01:34:32;;;;;;;33.70;7.25;;;5.40;99.90;;;;;;5008390;28;20037;-75
2023/01/31 01:36:58;;;;;;;40.53;9.23;;;5.40;99.90;;;;;;5006942;28;20030;-70
2023/01/31 01:39:24;;;;;;;33.58;7.63;;;5.40;99.90;;;;;;5005802;28;20037;-70
2023/01/31 01:41:51;;;;;;;29.67;7.88;;;5.30;99.90;;;;;;5020315;28;20030;-69
2023/01/31 01:44:55;;;;;;;34.95;7.85;;;5.30;99.90;;;;;;5000278;28;20125;-70
2023/01/31 01:47:39;;;;;;;28.45;7.28;;;5.20;99.90;;;;;;5008899;28;20462;-71
2023/01/31 01:50:10;;;;;;;33.67;7.90;;;5.20;99.90;;;;;;5008611;28;20026;-70
2023/01/31 01:52:44;;;;;;;35.93;7.90;;;5.20;99.90;;;;;;5006256;28;20126;-69
2023/01/31 01:55:19;;;;;;;34.33;10.10;;;5.20;99.90;;;;;;5006538;28;20065;-70
2023/01/31 01:57:48;;;;;;;33.95;8.68;;;5.10;99.90;;;;;;5008916;28;20101;-69
2023/01/31 02:00:25;;;;;;;34.08;9.40;;;5.10;99.90;;;;;;5007780;28;20029;-69
2023/01/31 02:02:54;;;;;;;44.53;12.30;;;5.10;99.90;;;;;;5009183;28;20029;-69
2023/01/31 02:05:26;;;;;;;44.25;11.23;;;5.10;99.90;;;;;;5010305;28;20034;-73
2023/01/31 02:07:53;;;;;;;45.58;12.52;;;5.20;99.90;;;;;;5005095;28;20033;-73
2023/01/31 02:10:34;;;;;;;46.42;14.07;;;5.20;99.90;;;;;;5005715;28;20152;-70
2023/01/31 02:13:01;;;;;;;58.95;17.23;;;5.20;99.90;;;;;;4998007;28;20048;-69
2023/01/31 02:15:26;;;;;;;54.05;21.38;;;5.20;99.90;;;;;;5006171;28;20022;-72
2023/01/31 02:17:53;;;;;;;57.67;21.83;;;5.10;99.90;;;;;;5007096;28;20474;-69
2023/01/31 02:20:30;;;;;;;68.10;24.80;;;5.10;99.90;;;;;;5007350;28;20034;-69
2023/01/31 02:23:15;;;;;;;67.25;30.40;;;5.10;99.90;;;;;;5006136;28;20033;-69
2023/01/31 02:25:56;;;;;;;71.45;32.50;;;5.10;99.90;;;;;;5008216;28;20029;-69
2023/01/31 02:28:21;;;;;;;77.18;36.13;;;5.00;99.90;;;;;;5004021;28;20029;-69
2023/01/31 02:31:11;;;;;;;80.50;38.03;;;5.00;99.90;;;;;;5004036;28;20030;-69
2023/01/31 02:33:51;;;;;;;95.53;43.85;;;4.90;99.90;;;;;;5006258;28;20041;-69
2023/01/31 02:36:29;;;;;;;93.20;41.75;;;4.90;99.90;;;;;;5004050;28;20022;-69
2023/01/31 02:39:00;;;;;;;108.60;43.60;;;4.90;99.90;;;;;;5003624;28;20026;-69
2023/01/31 02:41:37;;;;;;;103.85;46.88;;;4.90;99.90;;;;;;5008178;28;20163;-69
2023/01/31 02:47:14;;;;;;;99.82;46.30;;;5.00;99.90;;;;;;5005251;28;20631;-70
2023/01/31 02:49:48;;;;;;;96.40;46.17;;;5.00;99.90;;;;;;5007816;28;20470;-70
2023/01/31 02:52:51;;;;;;;108.45;51.50;;;5.00;99.90;;;;;;5005007;28;20374;-70
2023/01/31 02:58:21;;;;;;;106.20;52.92;;;5.00;99.90;;;;;;5004930;28;20032;-69
2023/01/31 03:00:48;;;;;;;104.35;52.92;;;5.00;99.90;;;;;;5005752;28;20156;-71
2023/01/31 03:03:24;;;;;;;112.82;51.42;;;5.00;99.90;;;;;;5004912;28;20037;-69
2023/01/31 03:06:21;;;;;;;100.47;49.58;;;5.00;99.90;;;;;;5006938;28;20026;-71
2023/01/31 03:08:52;;;;;;;107.82;50.58;;;4.90;99.90;;;;;;5003244;28;20033;-69
2023/01/31 03:11:20;;;;;;;101.75;49.50;;;5.00;99.90;;;;;;5007221;28;20099;-69
2023/01/31 03:14:07;;;;;;;103.70;50.33;;;5.00;99.90;;;;;;5002142;28;20034;-70
2023/01/31 03:19:54;;;;;;;96.90;45.45;;;5.00;99.90;;;;;;5005225;28;20045;-69
2023/01/31 03:22:28;;;;;;;93.35;41.42;;;5.00;99.90;;;;;;5004589;28;20060;-69
2023/01/31 03:24:55;;;;;;;82.50;35.83;;;5.00;99.90;;;;;;5005637;28;20041;-70
2023/01/31 03:27:21;;;;;;;73.78;36.25;;;5.10;99.90;;;;;;5007864;28;20040;-69
2023/01/31 03:29:47;;;;;;;62.78;28.90;;;5.00;99.90;;;;;;5006010;28;20172;-69
2023/01/31 03:32:36;;;;;;;67.40;27.60;;;5.10;99.90;;;;;;5001565;28;20117;-69
2023/01/31 03:35:03;;;;;;;64.95;24.73;;;5.00;99.90;;;;;;5005031;28;20034;-70
2023/01/31 03:37:45;;;;;;;63.78;22.73;;;5.00;99.90;;;;;;5008390;28;20034;-69
2023/01/31 03:40:11;;;;;;;61.58;20.58;;;5.00;99.90;;;;;;5005940;28;20022;-70
2023/01/31 03:43:01;;;;;;;48.13;16.85;;;4.90;99.90;;;;;;5009550;28;20498;-71
2023/01/31 03:45:46;;;;;;;51.25;17.55;;;5.00;99.90;;;;;;5009452;28;20018;-69
2023/01/31 03:48:16;;;;;;;54.42;17.77;;;5.00;99.90;;;;;;5010131;28;20018;-70
2023/01/31 03:50:59;;;;;;;47.63;15.70;;;5.00;99.90;;;;;;5008687;28;20052;-70
2023/01/31 03:53:31;;;;;;;42.40;15.10;;;5.00;99.90;;;;;;5009049;28;20041;-69
2023/01/31 03:56:18;;;;;;;56.67;15.52;;;5.00;99.90;;;;;;5012650;28;20423;-70
2023/01/31 03:58:52;;;;;;;53.00;15.18;;;5.00;99.90;;;;;;5012522;28;20055;-71
2023/01/31 04:01:21;;;;;;;39.15;14.30;;;5.00;99.90;;;;;;5011230;28;20026;-71
2023/01/31 04:03:55;;;;;;;52.13;13.65;;;5.00;99.90;;;;;;5010968;28;20064;-69
2023/01/31 04:06:21;;;;;;;46.72;14.05;;;5.10;99.90;;;;;;5008918;28;20021;-70
2023/01/31 04:08:46;;;;;;;47.40;13.27;;;5.10;99.90;;;;;;5012522;28;20096;-72
2023/01/31 04:11:13;;;;;;;54.47;14.80;;;5.00;99.90;;;;;;5011481;28;20022;-69
2023/01/31 04:13:41;;;;;;;46.92;14.05;;;5.00;99.90;;;;;;5009407;28;20088;-70
2023/01/31 04:16:08;;;;;;;39.08;12.63;;;4.90;99.90;;;;;;5011247;28;20421;-69
2023/01/31 04:18:33;;;;;;;47.50;15.55;;;4.90;99.90;;;;;;5012613;28;20393;-70
2023/01/31 04:20:59;;;;;;;32.83;12.40;;;4.90;99.90;;;;;;5005260;28;20029;-69
2023/01/31 04:23:25;;;;;;;38.63;12.65;;;4.90;99.90;;;;;;5008788;28;20028;-70
2023/01/31 04:25:53;;;;;;;41.65;13.00;;;4.90;99.90;;;;;;5010498;28;20120;-69
2023/01/31 04:28:19;;;;;;;53.28;14.07;;;4.90;99.90;;;;;;5007319;28;20022;-70
2023/01/31 04:30:45;;;;;;;40.50;13.05;;;4.90;99.90;;;;;;5007602;28;20036;-69
2023/01/31 04:33:11;;;;;;;50.58;15.77;;;4.90;99.90;;;;;;5008776;28;20044;-69
2023/01/31 04:35:39;;;;;;;49.88;15.95;;;4.90;99.90;;;;;;5010934;28;20486;-70
2023/01/31 04:38:05;;;;;;;41.65;13.77;;;4.80;99.90;;;;;;5013097;28;20032;-70
2023/01/31 04:40:30;;;;;;;46.83;13.85;;;4.70;99.90;;;;;;5011341;28;20037;-70
2023/01/31 04:42:56;;;;;;;48.22;14.88;;;4.80;99.90;;;;;;5010785;28;20026;-69
2023/01/31 04:45:22;;;;;;;41.00;13.68;;;4.70;99.90;;;;;;5010260;28;20030;-70
2023/01/31 04:47:47;;;;;;;46.05;15.55;;;4.70;99.90;;;;;;5007346;28;20034;-69
2023/01/31 04:50:13;;;;;;;45.00;14.55;;;4.70;99.90;;;;;;5009450;28;20531;-70
2023/01/31 04:52:38;;;;;;;38.95;14.48;;;4.70;99.90;;;;;;5006372;28;20031;-69
2023/01/31 04:55:04;;;;;;;42.75;15.98;;;4.70;99.90;;;;;;5002894;28;20091;-69
2023/01/31 04:57:30;;;;;;;61.63;18.67;;;4.60;99.90;;;;;;5006319;28;20333;-69
2023/01/31 04:59:56;;;;;;;43.17;17.15;;;4.60;99.90;;;;;;5005203;28;20358;-69
2023/01/31 05:02:22;;;;;;;64.10;20.83;;;4.60;99.90;;;;;;5005274;28;20036;-69
2023/01/31 05:04:47;;;;;;;71.80;22.58;;;4.60;99.90;;;;;;5007365;28;20076;-69
2023/01/31 05:07:13;;;;;;;63.15;22.83;;;4.60;99.90;;;;;;5008377;28;20223;-70
2023/01/31 05:09:41;;;;;;;61.13;22.17;;;4.60;99.90;;;;;;5007212;28;20037;-70
2023/01/31 05:12:07;;;;;;;61.05;22.95;;;4.50;99.90;;;;;;5005063;28;20030;-70
2023/01/31 05:14:33;;;;;;;55.20;20.50;;;4.60;99.90;;;;;;5009188;28;20034;-70
2023/01/31 05:16:58;;;;;;;52.28;22.45;;;4.50;99.90;;;;;;5008825;28;20497;-69
2023/01/31 05:19:24;;;;;;;47.60;19.02;;;4.50;99.90;;;;;;5009589;28;20032;-71
2023/01/31 05:21:58;;;;;;;44.88;17.45;;;4.50;99.90;;;;;;5013558;28;20097;-70
2023/01/31 05:24:27;;;;;;;39.63;15.43;;;4.50;99.90;;;;;;5006905;28;20026;-70
2023/01/31 05:26:57;;;;;;;44.85;16.33;;;4.50;99.90;;;;;;5016549;28;20100;-69
2023/01/31 05:29:26;;;;;;;45.67;17.13;;;4.40;99.90;;;;;;5013693;28;20492;-70
2023/01/31 05:31:54;;;;;;;60.70;18.48;;;4.40;99.90;;;;;;5013541;28;20563;-70
2023/01/31 05:34:21;;;;;;;59.95;17.98;;;4.50;99.90;;;;;;5012649;28;20042;-69
2023/01/31 05:36:47;;;;;;;47.20;14.80;;;4.50;99.90;;;;;;5013304;28;20057;-70
2023/01/31 05:39:12;;;;;;;48.88;15.43;;;4.50;99.90;;;;;;5009026;28;20513;-69
2023/01/31 05:41:38;;;;;;;47.47;15.48;;;4.50;99.90;;;;;;5012253;28;20045;-69
2023/01/31 05:44:04;;;;;;;53.75;15.30;;;4.50;99.90;;;;;;5015579;28;20022;-69
2023/01/31 05:46:29;;;;;;;50.25;16.15;;;4.50;99.90;;;;;;5012131;28;20064;-70
2023/01/31 05:48:55;;;;;;;47.25;15.40;;;4.50;99.90;;;;;;5008610;28;20080;-69
2023/01/31 05:51:21;;;;;;;43.67;14.82;;;4.50;99.90;;;;;;5007177;28;20494;-69
2023/01/31 05:53:47;;;;;;;43.40;15.43;;;4.40;99.90;;;;;;5008541;28;20054;-69
2023/01/31 05:56:13;;;;;;;43.42;15.30;;;4.50;99.90;;;;;;5005652;28;20026;-71
2023/01/31 05:58:39;;;;;;;45.17;15.40;;;4.50;99.90;;;;;;5012008;28;20040;-70
2023/01/31 06:01:04;;;;;;;53.58;17.20;;;4.40;99.90;;;;;;5012759;28;20054;-70
2023/01/31 06:03:30;;;;;;;44.40;16.05;;;4.40;99.90;;;;;;5013383;28;20034;-70
2023/01/31 06:05:55;;;;;;;38.45;15.20;;;4.50;99.90;;;;;;5005919;28;20029;-70
2023/01/31 06:08:21;;;;;;;41.00;15.82;;;4.40;99.90;;;;;;5013517;28;20049;-70
2023/01/31 06:10:47;;;;;;;49.55;17.48;;;4.50;99.90;;;;;;5005076;28;20104;-70
2023/01/31 06:13:12;;;;;;;51.72;15.60;;;4.40;99.90;;;;;;5011300;28;20029;-70
2023/01/31 06:15:42;;;;;;;47.83;15.77;;;4.50;99.90;;;;;;5010106;28;20033;-70
2023/01/31 06:18:08;;;;;;;39.35;15.82;;;4.50;99.90;;;;;;5010201;28;20394;-69
2023/01/31 06:20:33;;;;;;;47.22;16.65;;;4.60;99.90;;;;;;5013179;28;20036;-70
2023/01/31 06:23:00;;;;;;;38.00;17.10;;;4.60;99.90;;;;;;5011311;28;20029;-69
2023/01/31 06:25:26;;;;;;;41.92;14.68;;;4.60;99.90;;;;;;5004058;28;20399;-72
2023/01/31 06:27:51;;;;;;;46.47;15.68;;;4.60;99.90;;;;;;5014754;28;20080;-70
2023/01/31 06:30:17;;;;;;;41.58;15.80;;;4.60;99.90;;;;;;5006761;28;20027;-69
2023/01/31 06:32:43;;;;;;;42.65;14.85;;;4.60;99.90;;;;;;5012713;28;20494;-69
2023/01/31 06:35:08;;;;;;;45.75;15.45;;;4.60;99.90;;;;;;5005637;28;20065;-70
2023/01/31 06:37:34;;;;;;;37.75;14.00;;;4.70;99.90;;;;;;5009848;28;20447;-70
2023/01/31 06:40:00;;;;;;;39.70;14.25;;;4.70;99.90;;;;;;5010820;28;20246;-69
2023/01/31 06:42:25;;;;;;;45.08;14.43;;;4.60;99.90;;;;;;5010964;28;20049;-70
2023/01/31 06:44:51;;;;;;;45.92;14.20;;;4.60;99.90;;;;;;5013267;28;20045;-70
2023/01/31 06:47:16;;;;;;;41.88;13.63;;;4.60;99.90;;;;;;5008862;28;20023;-69
2023/01/31 06:49:42;;;;;;;39.92;11.73;;;4.70;99.90;;;;;;5013282;28;20092;-70
2023/01/31 06:52:07;;;;;;;45.13;12.90;;;4.70;99.90;;;;;;5010484;28;20364;-70
2023/01/31 06:54:33;;;;;;;42.15;13.02;;;4.70;99.90;;;;;;5010202;28;20041;-71
2023/01/31 06:56:59;;;;;;;42.35;12.80;;;4.80;99.90;;;;;;5012142;28;20489;-70
2023/01/31 06:59:24;;;;;;;34.20;11.93;;;4.80;99.90;;;;;;5011349;28;20065;-70
2023/01/31 07:01:50;;;;;;;32.53;11.02;;;4.80;99.90;;;;;;5012109;28;20040;-68
2023/01/31 07:04:15;;;;;;;47.83;13.25;;;4.80;99.90;;;;;;5004558;28;20049;-69
2023/01/31 07:06:41;;;;;;;29.75;11.93;;;4.80;99.90;;;;;;5012261;28;20024;-69
2023/01/31 07:09:06;;;;;;;38.40;11.15;;;4.80;99.90;;;;;;5002572;28;20485;-71
2023/01/31 07:11:32;;;;;;;44.90;11.93;;;4.80;99.90;;;;;;5009560;28;20080;-71
2023/01/31 07:13:58;;;;;;;40.40;12.98;;;4.90;99.90;;;;;;5010351;28;20041;-70
2023/01/31 07:16:24;;;;;;;35.85;10.60;;;4.90;99.90;;;;;;5009122;28;20445;-70
2023/01/31 07:18:54;;;;;;;38.33;11.88;;;4.90;99.90;;;;;;5007300;28;20091;-70
2023/01/31 07:21:20;;;;;;;40.50;12.02;;;5.00;99.90;;;;;;5008896;28;20037;-72
2023/01/31 07:23:46;;;;;;;42.60;12.63;;;5.00;99.90;;;;;;5012170;28;20497;-70
2023/01/31 07:26:12;;;;;;;33.45;10.25;;;5.00;99.90;;;;;;5012878;28;20034;-70
2023/01/31 07:28:37;;;;;;;42.58;13.98;;;5.00;99.90;;;;;;5010592;28;20028;-70
2023/01/31 07:31:09;;;;;;;42.78;12.25;;;5.10;99.90;;;;;;5010297;28;20021;-70
2023/01/31 07:33:35;;;;;;;38.50;12.52;;;5.00;99.90;;;;;;5012933;28;20042;-69
2023/01/31 07:36:03;;;;;;;40.17;12.25;;;5.00;99.90;;;;;;5011681;28;20028;-69
2023/01/31 07:38:30;;;;;;;33.47;11.43;;;5.10;99.90;;;;;;5012605;28;20024;-69
2023/01/31 07:40:59;;;;;;;32.10;12.15;;;5.10;99.90;;;;;;5008570;28;20068;-69
2023/01/31 07:43:25;;;;;;;38.95;13.32;;;5.10;99.90;;;;;;5011648;28;20088;-69
2023/01/31 07:45:50;;;;;;;37.25;12.02;;;5.10;99.90;;;;;;5005769;28;20026;-70
2023/01/31 07:48:16;;;;;;;36.60;10.93;;;5.10;99.90;;;;;;5007191;28;20576;-70
2023/01/31 07:50:41;;;;;;;32.90;10.80;;;5.10;99.90;;;;;;5008078;28;20029;-70
2023/01/31 07:53:07;;;;;;;29.20;9.82;;;5.10;99.90;;;;;;5010869;28;20022;-69
2023/01/31 07:55:32;;;;;;;33.47;10.65;;;5.10;99.90;;;;;;5007594;28;20088;-69
2023/01/31 07:57:58;;;;;;;41.38;9.85;;;5.20;99.90;;;;;;5007028;28;20024;-72
2023/01/31 08:03:34;;;;;;;34.88;9.25;;;5.20;99.90;;;;;;5004997;28;21253;-71
2023/01/31 08:06:10;;;;;;;30.40;8.35;;;5.40;99.90;;;;;;5007173;28;20042;-71
2023/01/31 08:08:37;;;;;;;36.38;8.38;;;5.40;99.90;;;;;;5006415;28;20034;-70
2023/01/31 08:11:06;;;;;;;29.77;8.80;;;5.50;99.90;;;;;;5009767;28;20036;-71
2023/01/31 08:13:34;;;;;;;32.38;8.95;;;5.40;99.90;;;;;;5007055;28;20050;-73
2023/01/31 08:16:00;;;;;;;30.90;8.27;;;5.50;99.90;;;;;;5006855;28;20060;-74
2023/01/31 08:18:25;;;;;;;30.05;7.55;;;5.50;99.90;;;;;;5007951;28;20018;-76
2023/01/31 08:20:51;;;;;;;30.05;7.38;;;5.60;99.90;;;;;;5003906;28;20434;-70
2023/01/31 08:23:17;;;;;;;27.08;7.47;;;5.60;99.90;;;;;;5005921;28;20031;-71
2023/01/31 08:25:43;;;;;;;30.63;8.43;;;5.70;99.90;;;;;;5009515;28;20026;-70
2023/01/31 08:28:09;;;;;;;28.98;8.45;;;5.70;99.90;;;;;;5009934;28;20034;-70
2023/01/31 08:30:39;;;;;;;28.85;7.20;;;5.70;99.90;;;;;;5005792;28;20026;-69
2023/01/31 08:33:05;;;;;;;18.95;6.75;;;5.80;99.90;;;;;;5007344;28;20042;-70
2023/01/31 08:35:31;;;;;;;30.50;8.88;;;5.80;99.90;;;;;;5007404;28;20030;-70
2023/01/31 08:37:56;;;;;;;26.48;7.75;;;5.90;99.90;;;;;;5012692;28;20029;-69
2023/01/31 08:40:22;;;;;;;31.48;8.23;;;5.80;99.90;;;;;;5006577;28;20073;-70
2023/01/31 08:42:59;;;;;;;29.73;8.15;;;5.80;99.90;;;;;;5011940;28;20087;-77
2023/01/31 08:45:26;;;;;;;34.00;7.95;;;5.90;99.90;;;;;;5007364;28;20045;-76
2023/01/31 08:47:59;;;;;;;36.10;8.13;;;5.90;99.90;;;;;;5010741;28;20026;-77
2023/01/31 08:50:27;;;;;;;25.92;7.03;;;6.00;99.90;;;;;;5007190;28;20501;-77
2023/01/31 08:52:58;;;;;;;29.80;7.63;;;6.10;99.90;;;;;;5007335;28;20046;-77
2023/01/31 08:55:25;;;;;;;28.73;7.47;;;6.10;99.90;;;;;;5010689;28;20083;-77
2023/01/31 08:57:52;;;;;;;29.98;7.53;;;6.10;99.90;;;;;;5001520;28;20041;-76
2023/01/31 09:00:20;;;;;;;38.78;7.72;;;6.10;99.90;;;;;;5006778;28;20018;-74
2023/01/31 09:02:57;;;;;;;27.80;6.70;;;6.20;99.90;;;;;;4991617;28;20037;-73
2023/01/31 09:05:24;;;;;;;28.10;7.63;;;6.20;99.90;;;;;;4989000;28;20030;-76
2023/01/31 09:07:49;;;;;;;32.65;8.02;;;6.20;99.90;;;;;;5002899;28;20108;-76
2023/01/31 09:10:16;;;;;;;35.75;8.75;;;6.30;99.90;;;;;;5001645;28;20100;-72
2023/01/31 09:12:42;;;;;;;29.55;8.23;;;6.30;99.90;;;;;;5002979;28;20048;-75
2023/01/31 09:15:08;;;;;;;29.08;7.68;;;6.30;99.90;;;;;;5002318;28;20044;-76
2023/01/31 09:17:34;;;;;;;32.85;7.32;;;6.40;99.90;;;;;;5000260;28;20022;-74
2023/01/31 09:20:05;;;;;;;28.85;7.90;;;6.40;99.90;;;;;;5001052;28;20201;-76
2023/01/31 09:22:32;;;;;;;24.40;8.13;;;6.40;99.90;;;;;;5002382;28;20039;-72
2023/01/31 09:24:58;;;;;;;35.22;8.55;;;6.40;99.90;;;;;;4999722;28;20100;-72
2023/01/31 09:27:24;;;;;;;23.55;8.20;;;6.40;99.90;;;;;;5003689;28;20030;-76
2023/01/31 09:29:49;;;;;;;31.55;8.57;;;6.40;99.90;;;;;;5001031;28;20087;-75
2023/01/31 09:32:15;;;;;;;33.95;9.45;;;6.50;99.90;;;;;;5001914;28;20168;-71
2023/01/31 09:34:41;;;;;;;33.15;9.02;;;6.50;99.90;;;;;;4999161;28;20041;-73
2023/01/31 09:37:06;;;;;;;23.15;7.70;;;6.40;99.90;;;;;;5004097;28;20031;-72
2023/01/31 09:39:32;;;;;;;33.88;9.32;;;6.40;99.90;;;;;;5003514;28;20029;-74
2023/01/31 09:42:24;;;;;;;34.58;9.25;;;6.50;99.90;;;;;;5005526;28;20392;-74
2023/01/31 09:45:12;;;;;;;26.92;8.88;;;6.50;99.90;;;;;;5000450;28;20038;-76
2023/01/31 09:47:46;;;;;;;40.30;8.52;;;6.60;99.90;;;;;;5002884;28;20019;-71
2023/01/31 09:50:30;;;;;;;32.00;7.68;;;6.70;99.90;;;;;;5003853;28;20113;-72
2023/01/31 09:52:56;;;;;;;26.83;8.38;;;6.70;99.90;;;;;;5003155;28;20038;-71
2023/01/31 09:55:33;;;;;;;31.77;8.15;;;6.80;99.90;;;;;;4999415;28;20025;-71
2023/01/31 09:58:24;;;;;;;27.15;8.80;;;6.80;99.90;;;;;;5004491;28;20048;-73
2023/01/31 10:01:01;;;;;;;33.72;9.30;;;6.80;99.90;;;;;;5000060;28;20450;-77
2023/01/31 10:03:39;;;;;;;22.10;7.68;;;6.80;99.90;;;;;;5001068;28;20041;-74
2023/01/31 10:06:10;;;;;;;21.95;7.28;;;6.90;99.90;;;;;;5004657;28;20498;-74
2023/01/31 10:08:40;;;;;;;30.45;9.15;;;6.90;99.90;;;;;;5001365;28;20352;-76
2023/01/31 10:11:12;;;;;;;23.98;8.50;;;6.90;99.90;;;;;;4997250;28;20105;-72
2023/01/31 10:14:20;;;;;;;28.42;9.60;;;7.00;99.90;;;;;;4999913;28;20091;-75
2023/01/31 10:17:09;;;;;;;28.42;7.43;;;7.10;99.90;;;;;;4992763;28;20367;-76
2023/01/31 10:19:56;;;;;;;24.92;7.35;;;7.20;99.90;;;;;;4996389;28;20040;-76
2023/01/31 10:22:36;;;;;;;25.38;7.97;;;7.20;99.90;;;;;;4993534;28;20479;-71
2023/01/31 10:25:26;;;;;;;25.58;10.35;;;7.20;99.90;;;;;;4993763;28;20027;-72
2023/01/31 10:28:15;;;;;;;30.70;8.63;;;7.30;99.90;;;;;;4995412;28;20034;-71
2023/01/31 10:30:59;;;;;;;24.95;8.20;;;7.30;99.90;;;;;;4990903;28;20018;-72
2023/01/31 10:33:43;;;;;;;34.88;8.93;;;7.40;99.90;;;;;;5000521;28;20097;-72
2023/01/31 10:36:35;;;;;;;28.55;8.73;;;7.40;99.90;;;;;;4992125;28;20030;-71
2023/01/31 10:39:03;;;;;;;26.95;6.97;;;7.40;99.90;;;;;;4991861;28;20038;-73
2023/01/31 10:42:14;;;;;;;29.17;8.07;;;7.50;99.90;;;;;;4995724;28;20105;-72
2023/01/31 10:45:02;;;;;;;26.50;8.13;;;7.40;99.90;;;;;;5005316;28;20695;-71
2023/01/31 10:47:38;;;;;;;30.13;9.80;;;7.50;99.90;;;;;;4988378;28;20065;-71
2023/01/31 10:50:15;;;;;;;30.90;8.93;;;7.60;99.90;;;;;;5002274;28;20017;-70
2023/01/31 10:53:15;;;;;;;26.92;8.65;;;7.50;99.90;;;;;;4994814;28;20133;-72
2023/01/31 10:56:02;;;;;;;26.58;8.52;;;7.50;99.90;;;;;;5001035;28;20370;-70
2023/01/31 10:58:28;;;;;;;32.85;9.38;;;7.50;99.90;;;;;;4996332;28;20412;-71
2023/01/31 11:00:53;;;;;;;38.97;9.93;;;7.60;99.90;;;;;;4997499;28;20097;-74
2023/01/31 11:03:20;;;;;;;32.42;8.60;;;7.60;99.90;;;;;;4994827;28;20426;-78
2023/01/31 11:05:54;;;;;;;30.75;9.15;;;7.50;99.90;;;;;;4994262;28;20029;-72
2023/01/31 11:08:42;;;;;;;24.45;7.95;;;7.60;99.90;;;;;;4993075;28;20050;-70
2023/01/31 11:11:19;;;;;;;24.25;8.30;;;7.70;99.90;;;;;;4997971;28;20511;-69
2023/01/31 11:13:59;;;;;;;27.25;7.25;;;7.80;99.90;;;;;;4995302;28;20506;-74
2023/01/31 11:16:30;;;;;;;23.77;8.55;;;7.90;99.90;;;;;;4994857;28;20046;-72
2023/01/31 11:18:58;;;;;;;23.25;7.57;;;7.90;99.90;;;;;;4998336;28;20022;-71
2023/01/31 11:21:31;;;;;;;33.13;8.95;;;8.00;99.90;;;;;;4995514;28;20085;-87
2023/01/31 11:24:03;;;;;;;29.80;8.50;;;8.00;99.90;;;;;;4997910;28;20037;-89
2023/01/31 11:27:12;;;;;;;23.90;8.27;;;8.00;99.90;;;;;;4996434;28;20472;-70
2023/01/31 11:29:44;;;;;;;25.63;8.13;;;8.00;99.90;;;;;;4996189;28;20457;-69
2023/01/31 11:32:24;;;;;;;18.27;7.37;;;8.20;99.90;;;;;;4996216;28;20093;-69
2023/01/31 11:35:11;;;;;;;28.30;7.20;;;8.10;99.90;;;;;;4994394;28;20469;-71
2023/01/31 11:37:56;;;;;;;20.55;7.35;;;8.20;99.90;;;;;;4995855;28;20483;-71
2023/01/31 11:40:34;;;;;;;26.90;7.88;;;8.10;99.90;;;;;;4996543;28;20050;-71
2023/01/31 11:43:02;;;;;;;20.92;7.47;;;8.20;99.90;;;;;;4998262;28;20025;-71
2023/01/31 11:45:34;;;;;;;22.52;7.20;;;8.30;99.90;;;;;;5001807;28;20088;-71
2023/01/31 11:48:29;;;;;;;19.55;7.10;;;8.40;99.90;;;;;;4994390;28;20120;-71
2023/01/31 11:50:59;;;;;;;25.73;8.27;;;8.30;99.90;;;;;;4993845;28;20038;-72
2023/01/31 11:53:44;;;;;;;18.83;7.85;;;8.30;99.90;;;;;;4995492;28;20101;-72
2023/01/31 11:56:15;;;;;;;26.30;8.25;;;8.20;99.90;;;;;;4998591;28;20026;-71
2023/01/31 11:58:44;;;;;;;27.60;7.15;;;8.20;99.90;;;;;;4997832;28;20068;-71
2023/01/31 12:01:17;;;;;;;20.95;7.80;;;8.20;99.90;;;;;;4994482;28;20045;-71
2023/01/31 12:03:52;;;;;;;21.83;8.07;;;8.20;99.90;;;;;;4998439;28;20113;-71
2023/01/31 12:06:31;;;;;;;19.75;7.55;;;8.20;99.90;;;;;;5000624;28;20034;-71
2023/01/31 12:08:59;;;;;;;17.80;8.32;;;8.20;99.90;;;;;;5000302;28;20382;-71
2023/01/31 12:11:33;;;;;;;22.85;7.00;;;8.20;99.90;;;;;;5001953;28;20101;-72
2023/01/31 12:14:14;;;;;;;26.48;7.65;;;8.30;99.90;;;;;;5000307;28;20061;-71
2023/01/31 12:16:42;;;;;;;22.77;7.13;;;8.30;99.90;;;;;;4999146;28;20030;-71
2023/01/31 12:19:10;;;;;;;27.55;7.63;;;8.40;99.90;;;;;;5000479;28;20076;-71
2023/01/31 12:22:01;;;;;;;27.13;7.75;;;8.40;99.90;;;;;;4998316;28;20059;-71
2023/01/31 12:24:46;;;;;;;22.88;7.50;;;8.40;99.90;;;;;;4997882;28;20349;-72
2023/01/31 12:27:48;;;;;;;26.27;8.48;;;8.50;99.90;;;;;;4996751;28;20117;-72
2023/01/31 12:30:51;;;;;;;19.85;8.30;;;8.50;99.90;;;;;;5002500;28;20032;-74
2023/01/31 12:33:25;;;;;;;26.67;8.07;;;8.50;99.90;;;;;;4998753;28;20398;-71
2023/01/31 12:36:06;;;;;;;23.98;8.23;;;8.50;99.90;;;;;;4999894;28;20030;-73
2023/01/31 12:39:01;;;;;;;18.83;8.52;;;8.50;99.90;;;;;;5000525;28;20057;-72
2023/01/31 12:41:40;;;;;;;19.25;7.45;;;8.50;99.90;;;;;;4994577;28;20410;-72
2023/01/31 12:44:22;;;;;;;22.00;9.00;;;8.50;99.90;;;;;;4996936;28;20080;-71
2023/01/31 12:46:59;;;;;;;23.00;8.77;;;8.50;99.90;;;;;;5006247;28;20022;-71
2023/01/31 12:49:55;;;;;;;31.23;10.73;;;8.40;99.90;;;;;;5000292;28;20467;-71
2023/01/31 12:52:51;;;;;;;23.73;9.95;;;8.50;99.90;;;;;;4998194;28;20075;-71
2023/01/31 12:55:35;;;;;;;23.80;10.20;;;8.50;99.90;;;;;;5000897;28;20120;-72
2023/01/31 12:58:20;;;;;;;25.27;9.75;;;8.50;99.90;;;;;;4999652;28;20501;-71
2023/01/31 13:01:02;;;;;;;34.03;10.60;;;8.50;99.90;;;;;;5004634;28;20049;-71
2023/01/31 13:03:40;;;;;;;27.90;10.43;;;8.50;99.90;;;;;;5000008;28;20045;-72
2023/01/31 13:06:14;;;;;;;27.55;10.38;;;8.50;99.90;;;;;;5006926;28;20057;-72
2023/01/31 13:08:48;;;;;;;36.10;12.73;;;8.50;99.90;;;;;;5001111;28;20030;-71
2023/01/31 13:11:21;;;;;;;35.80;11.95;;;8.50;99.90;;;;;;5000033;28;20027;-73
2023/01/31 13:13:55;;;;;;;27.77;11.93;;;8.40;99.90;;;;;;4999233;28;20034;-75
2023/01/31 13:16:42;;;;;;;30.38;12.75;;;8.40;99.90;;;;;;4998557;28;20049;-71